^^
Marion, Virginia Banner
 

Adwolf, VA. Station Historical Data
[ Providing Data Since 6/07/2007 ]
Station Historical Data
 
Daily Summary for May 23, 2017 Units:  Both    English   Metric
« Previous Day
Next Day »
Daily Weekly Monthly Yearly Custom
  Current: High: Low: Average:
Temperature: 64.1 °F /  17.8 °C 65.0 °F /  18.3 °C 59.6 °F /  15.3 °C 62 °F /  16.7 °C
Dew Point: 62.3 °F /  16.8 °C 62.6 °F /  17 °C 56.8 °F /  13.8 °C 59.3 °F /  15.2 °C
Humidity: 94% 95% 86% 91%
Wind Speed: 4.6mph /  7.4km/h 10.4mph /  16.7km/h - 4.2mph /  6.8km/h
Wind Gust: 4.6mph /  7.4km/h 10.4mph /  16.7km/h - -
WindNNE - - ENE
Pressure: 29.72 in /  1006.3 hPa 29.95 in /  1014.1 hPa 29.72 in /  1006.3 hPa -
Precipitation: 0.23 in /  5.84 mm      
Historical Graphs
 
 
Tabular Data for May 23, 2017
Time Temperature Dew Point Pressure Wind Wind Speed Wind Gust Humidity Rainfall Rate (Hourly) solar Conditions
00:02 59.6 °F /  15.3 °C 57.5 °F /  14.2 °C 29.95in /  1014.1hPa East 3.5mph /  5.6km/h 3.5mph /  5.6km/h 93% 0.00in /  0mm WeatherDisplay:10.37 W/m2 CLR
00:04 59.6 °F /  15.3 °C 57.5 °F /  14.2 °C 29.95in /  1014.1hPa East 3.5mph /  5.6km/h 3.5mph /  5.6km/h 93% 0.00in /  0mm WeatherDisplay:10.37 W/m2 CLR
00:09 59.6 °F /  15.3 °C 57.5 °F /  14.2 °C 29.95in /  1014.1hPa East 3.5mph /  5.6km/h 3.5mph /  5.6km/h 93% 0.00in /  0mm WeatherDisplay:10.37 W/m2 CLR
00:14 59.7 °F /  15.4 °C 57.6 °F /  14.2 °C 29.94in /  1013.8hPa East 3.5mph /  5.6km/h 3.5mph /  5.6km/h 93% 0.00in /  0mm WeatherDisplay:10.37 W/m2 CLR
00:19 59.7 °F /  15.4 °C 57.6 °F /  14.2 °C 29.94in /  1013.8hPa East 3.5mph /  5.6km/h 3.5mph /  5.6km/h 93% 0.00in /  0mm WeatherDisplay:10.37 W/m2 CLR
00:24 59.8 °F /  15.4 °C 57.7 °F /  14.3 °C 29.94in /  1013.8hPa NE 3.5mph /  5.6km/h 3.5mph /  5.6km/h 93% 0.00in /  0mm WeatherDisplay:10.37 W/m2 CLR
00:29 59.9 °F /  15.5 °C 57.8 °F /  14.3 °C 29.94in /  1013.8hPa NE 4.6mph /  7.4km/h 4.6mph /  7.4km/h 93% 0.00in /  0mm WeatherDisplay:10.37 W/m2 CLR
00:34 60.0 °F /  15.6 °C 57.9 °F /  14.4 °C 29.94in /  1013.8hPa NE 4.0mph /  6.4km/h 4.0mph /  6.4km/h 93% 0.00in /  0mm WeatherDisplay:10.37 W/m2 CLR
00:39 60.1 °F /  15.6 °C 57.7 °F /  14.3 °C 29.93in /  1013.4hPa NE 2.3mph /  3.7km/h 2.3mph /  3.7km/h 92% 0.00in /  0mm WeatherDisplay:10.37 W/m2 CLR
00:44 60.1 °F /  15.6 °C 57.7 °F /  14.3 °C 29.93in /  1013.4hPa NE 1.2mph /  1.9km/h 1.2mph /  1.9km/h 92% 0.00in /  0mm WeatherDisplay:10.37 W/m2 CLR
00:49 60.0 °F /  15.6 °C 57.6 °F /  14.2 °C 29.93in /  1013.4hPa NE 2.3mph /  3.7km/h 2.3mph /  3.7km/h 92% 0.00in /  0mm WeatherDisplay:10.37 W/m2 CLR
00:54 60.0 °F /  15.6 °C 57.6 °F /  14.2 °C 29.93in /  1013.4hPa NE 2.3mph /  3.7km/h 2.3mph /  3.7km/h 92% 0.00in /  0mm WeatherDisplay:10.37 W/m2 CLR
00:59 59.9 °F /  15.5 °C 57.5 °F /  14.2 °C 29.93in /  1013.4hPa NE 1.2mph /  1.9km/h 1.2mph /  1.9km/h 92% 0.00in /  0mm WeatherDisplay:10.37 W/m2 CLR
01:04 59.9 °F /  15.5 °C 57.5 °F /  14.2 °C 29.93in /  1013.4hPa NE 2.3mph /  3.7km/h 2.3mph /  3.7km/h 92% 0.00in /  0mm WeatherDisplay:10.37 W/m2 CLR
01:09 59.9 °F /  15.5 °C 57.5 °F /  14.2 °C 29.93in /  1013.4hPa NE 2.3mph /  3.7km/h 2.3mph /  3.7km/h 92% 0.00in /  0mm WeatherDisplay:10.37 W/m2 CLR
01:14 59.9 °F /  15.5 °C 57.5 °F /  14.2 °C 29.92in /  1013.1hPa NE 3.5mph /  5.6km/h 3.5mph /  5.6km/h 92% 0.00in /  0mm WeatherDisplay:10.37 W/m2 CLR
01:19 60.1 °F /  15.6 °C 57.7 °F /  14.3 °C 29.92in /  1013.1hPa NE 3.5mph /  5.6km/h 3.5mph /  5.6km/h 92% 0.00in /  0mm WeatherDisplay:10.37 W/m2 CLR
01:24 60.2 °F /  15.7 °C 57.8 °F /  14.3 °C 29.92in /  1013.1hPa ENE 3.5mph /  5.6km/h 3.5mph /  5.6km/h 92% 0.00in /  0mm WeatherDisplay:10.37 W/m2 CLR
01:29 60.4 °F /  15.8 °C 57.7 °F /  14.3 °C 29.92in /  1013.1hPa NE 3.5mph /  5.6km/h 3.5mph /  5.6km/h 91% 0.00in /  0mm WeatherDisplay:10.37 W/m2 CLR
01:34 60.6 °F /  15.9 °C 57.6 °F /  14.2 °C 29.92in /  1013.1hPa East 3.5mph /  5.6km/h 3.5mph /  5.6km/h 90% 0.00in /  0mm WeatherDisplay:10.37 W/m2 CLR
01:39 60.8 °F /  16 °C 57.8 °F /  14.3 °C 29.92in /  1013.1hPa NE 3.5mph /  5.6km/h 3.5mph /  5.6km/h 90% 0.00in /  0mm WeatherDisplay:10.37 W/m2 CLR
01:44 60.9 °F /  16.1 °C 57.6 °F /  14.2 °C 29.92in /  1013.1hPa East 3.5mph /  5.6km/h 3.5mph /  5.6km/h 89% 0.00in /  0mm WeatherDisplay:10.37 W/m2 SCT
01:49 60.9 °F /  16.1 °C 57.6 °F /  14.2 °C 29.91in /  1012.8hPa East 2.3mph /  3.7km/h 2.3mph /  3.7km/h 89% 0.00in /  0mm WeatherDisplay:10.37 W/m2 SCT
01:54 60.9 °F /  16.1 °C 57.6 °F /  14.2 °C 29.91in /  1012.8hPa ENE 1.2mph /  1.9km/h 1.2mph /  1.9km/h 89% 0.00in /  0mm WeatherDisplay:10.37 W/m2 SCT
01:59 60.9 °F /  16.1 °C 57.6 °F /  14.2 °C 29.91in /  1012.8hPa North 2.3mph /  3.7km/h 2.3mph /  3.7km/h 89% 0.00in /  0mm WeatherDisplay:10.37 W/m2 SCT
02:04 61.0 °F /  16.1 °C 57.7 °F /  14.3 °C 29.91in /  1012.8hPa NNE 4.6mph /  7.4km/h 4.6mph /  7.4km/h 89% 0.00in /  0mm WeatherDisplay:10.37 W/m2 SCT
02:09 61.1 °F /  16.2 °C 57.8 °F /  14.3 °C 29.90in /  1012.4hPa NE 3.5mph /  5.6km/h 3.5mph /  5.6km/h 89% 0.00in /  0mm WeatherDisplay:10.37 W/m2 SCT
02:14 61.2 °F /  16.2 °C 57.6 °F /  14.2 °C 29.90in /  1012.4hPa ENE 2.3mph /  3.7km/h 2.3mph /  3.7km/h 88% 0.00in /  0mm WeatherDisplay:10.37 W/m2 SCT
02:19 61.2 °F /  16.2 °C 57.9 °F /  14.4 °C 29.90in /  1012.4hPa NNE 1.0mph /  1.6km/h 1.0mph /  1.6km/h 89% 0.00in /  0mm WeatherDisplay:10.37 W/m2 SCT
02:24 61.1 °F /  16.2 °C 57.8 °F /  14.3 °C 29.90in /  1012.4hPa NNE 1.2mph /  1.9km/h   89% 0.00in /  0mm WeatherDisplay:10.37 W/m2 BKN
02:29 61.1 °F /  16.2 °C 57.8 °F /  14.3 °C 29.90in /  1012.4hPa Calm     89% 0.00in /  0mm WeatherDisplay:10.37 W/m2 BKN
02:34 61.0 °F /  16.1 °C 57.7 °F /  14.3 °C 29.90in /  1012.4hPa NNE 1.2mph /  1.9km/h   89% 0.00in /  0mm WeatherDisplay:10.37 W/m2 BKN
02:39 60.9 °F /  16.1 °C 57.6 °F /  14.2 °C 29.90in /  1012.4hPa NNE 1.2mph /  1.9km/h 1.2mph /  1.9km/h 89% 0.00in /  0mm WeatherDisplay:10.37 W/m2 BKN
02:44 60.9 °F /  16.1 °C 57.6 °F /  14.2 °C 29.90in /  1012.4hPa Calm     89% 0.00in /  0mm WeatherDisplay:10.37 W/m2 SCT
02:49 60.9 °F /  16.1 °C 57.6 °F /  14.2 °C 29.90in /  1012.4hPa East 3.5mph /  5.6km/h 3.5mph /  5.6km/h 89% 0.00in /  0mm WeatherDisplay:10.37 W/m2 SCT
02:54 60.9 °F /  16.1 °C 57.6 °F /  14.2 °C 29.90in /  1012.4hPa SE 3.5mph /  5.6km/h 3.5mph /  5.6km/h 89% 0.00in /  0mm WeatherDisplay:10.37 W/m2 SCT
02:59 60.9 °F /  16.1 °C 57.6 °F /  14.2 °C 29.89in /  1012.1hPa ESE 2.3mph /  3.7km/h 2.3mph /  3.7km/h 89% 0.00in /  0mm WeatherDisplay:10.37 W/m2 SCT
03:04 60.9 °F /  16.1 °C 57.6 °F /  14.2 °C 29.89in /  1012.1hPa ESE 2.3mph /  3.7km/h 2.3mph /  3.7km/h 89% 0.00in /  0mm WeatherDisplay:10.37 W/m2 BKN
03:09 60.9 °F /  16.1 °C 57.6 °F /  14.2 °C 29.89in /  1012.1hPa ESE 1.2mph /  1.9km/h 1.2mph /  1.9km/h 89% 0.00in /  0mm WeatherDisplay:10.37 W/m2 BKN
03:14 60.9 °F /  16.1 °C 57.6 °F /  14.2 °C 29.89in /  1012.1hPa ESE 1.2mph /  1.9km/h 1.2mph /  1.9km/h 89% 0.00in /  0mm WeatherDisplay:10.37 W/m2 BKN
03:19 60.9 °F /  16.1 °C 57.6 °F /  14.2 °C 29.89in /  1012.1hPa ESE 1.2mph /  1.9km/h 1.2mph /  1.9km/h 89% 0.00in /  0mm WeatherDisplay:10.37 W/m2 BKN
03:24 60.8 °F /  16 °C 57.5 °F /  14.2 °C 29.89in /  1012.1hPa East 2.3mph /  3.7km/h 2.3mph /  3.7km/h 89% 0.00in /  0mm WeatherDisplay:10.37 W/m2 OVC
03:29 60.7 °F /  15.9 °C 57.7 °F /  14.3 °C 29.88in /  1011.7hPa NNE 3.0mph /  4.8km/h 3.0mph /  4.8km/h 90% 0.00in /  0mm WeatherDisplay:10.37 W/m2 OVC
03:34 60.7 °F /  15.9 °C 57.4 °F /  14.1 °C 29.88in /  1011.7hPa NNE 2.3mph /  3.7km/h 2.6mph /  4.2km/h 89% 0.00in /  0mm WeatherDisplay:10.37 W/m2 OVC
03:39 60.7 °F /  15.9 °C 57.4 °F /  14.1 °C 29.88in /  1011.7hPa NNE 3.5mph /  5.6km/h 3.5mph /  5.6km/h 89% 0.00in /  0mm WeatherDisplay:10.37 W/m2 OVC
03:44 60.8 °F /  16 °C 57.2 °F /  14 °C 29.88in /  1011.7hPa East 3.5mph /  5.6km/h 3.5mph /  5.6km/h 88% 0.00in /  0mm WeatherDisplay:10.37 W/m2 OVC
03:49 60.9 °F /  16.1 °C 57.3 °F /  14.1 °C 29.88in /  1011.7hPa East 2.3mph /  3.7km/h 2.3mph /  3.7km/h 88% 0.00in /  0mm WeatherDisplay:10.37 W/m2 OVC
03:54 60.9 °F /  16.1 °C 57.3 °F /  14.1 °C 29.87in /  1011.4hPa NE 3.5mph /  5.6km/h 3.5mph /  5.6km/h 88% 0.00in /  0mm WeatherDisplay:10.37 W/m2 OVC
03:59 61.0 °F /  16.1 °C 57.4 °F /  14.1 °C 29.87in /  1011.4hPa NE 2.3mph /  3.7km/h 2.3mph /  3.7km/h 88% 0.00in /  0mm WeatherDisplay:10.37 W/m2 OVC
04:04 60.9 °F /  16.1 °C 57.3 °F /  14.1 °C 29.86in /  1011.1hPa NNE 3.5mph /  5.6km/h 3.5mph /  5.6km/h 88% 0.00in /  0mm WeatherDisplay:10.37 W/m2 OVC
04:09 60.9 °F /  16.1 °C 57.3 °F /  14.1 °C 29.86in /  1011.1hPa NE 3.0mph /  4.8km/h 3.0mph /  4.8km/h 88% 0.00in /  0mm WeatherDisplay:10.37 W/m2 OVC
04:14 60.9 °F /  16.1 °C 57.0 °F /  13.9 °C 29.86in /  1011.1hPa ENE 3.5mph /  5.6km/h 3.5mph /  5.6km/h 87% 0.00in /  0mm WeatherDisplay:10.37 W/m2 OVC
04:19 61.1 °F /  16.2 °C 57.2 °F /  14 °C 29.86in /  1011.1hPa East 10.4mph /  16.7km/h 10.4mph /  16.7km/h 87% 0.00in /  0mm WeatherDisplay:10.37 W/m2 OVC
04:24 61.2 °F /  16.2 °C 56.9 °F /  13.8 °C 29.86in /  1011.1hPa NE 6.9mph /  11.1km/h 6.9mph /  11.1km/h 86% 0.00in /  0mm WeatherDisplay:10.37 W/m2 OVC
04:29 61.2 °F /  16.2 °C 56.9 °F /  13.8 °C 29.86in /  1011.1hPa ENE 3.5mph /  5.6km/h 3.5mph /  5.6km/h 86% 0.00in /  0mm WeatherDisplay:10.37 W/m2 OVC
04:31 61.2 °F /  16.2 °C 56.9 °F /  13.8 °C 29.86in /  1011.1hPa NE 5.8mph /  9.3km/h 5.8mph /  9.3km/h 86% 0.00in /  0mm WeatherDisplay:10.37 W/m2 OVC
04:36 61.3 °F /  16.3 °C 57.0 °F /  13.9 °C 29.86in /  1011.1hPa ENE 4.6mph /  7.4km/h 4.6mph /  7.4km/h 86% 0.00in /  0mm WeatherDisplay:10.37 W/m2 OVC
04:41 61.1 °F /  16.2 °C 57.2 °F /  14 °C 29.85in /  1010.7hPa ENE 10.4mph /  16.7km/h 10.4mph /  16.7km/h 87% 0.01in /  0.25mm WeatherDisplay:10.37 W/m2 RA
04:46 60.9 °F /  16.1 °C 57.3 °F /  14.1 °C 29.84in /  1010.4hPa East 8.1mph /  13km/h 8.1mph /  13km/h 88% 0.01in /  0.25mm WeatherDisplay:10.37 W/m2 RA
04:51 60.6 °F /  15.9 °C 57.3 °F /  14.1 °C 29.84in /  1010.4hPa NNE 6.9mph /  11.1km/h 6.9mph /  11.1km/h 89% 0.01in /  0.25mm WeatherDisplay:10.37 W/m2 OVC
04:56 60.4 °F /  15.8 °C 57.1 °F /  13.9 °C 29.84in /  1010.4hPa NE 4.0mph /  6.4km/h 4.0mph /  6.4km/h 89% 0.01in /  0.25mm WeatherDisplay:10.37 W/m2 OVC
05:01 60.4 °F /  15.8 °C 57.4 °F /  14.1 °C 29.84in /  1010.4hPa NW 3.5mph /  5.6km/h 3.5mph /  5.6km/h 90% 0.01in /  0.25mm WeatherDisplay:10.37 W/m2 OVC
05:06 60.2 °F /  15.7 °C 56.9 °F /  13.8 °C 29.84in /  1010.4hPa NW 3.5mph /  5.6km/h 3.5mph /  5.6km/h 89% 0.01in /  0.25mm WeatherDisplay:10.37 W/m2 -RA
05:11 60.1 °F /  15.6 °C 56.8 °F /  13.8 °C 29.84in /  1010.4hPa North 9.0mph /  14.5km/h 9.0mph /  14.5km/h 89% 0.01in /  0.25mm WeatherDisplay:10.37 W/m2 -RA
05:16 60.2 °F /  15.7 °C 57.2 °F /  14 °C 29.83in /  1010hPa NNE 8.1mph /  13km/h 8.1mph /  13km/h 90% 0.01in /  0.25mm WeatherDisplay:10.37 W/m2 -RA
05:21 60.4 °F /  15.8 °C 57.4 °F /  14.1 °C 29.82in /  1009.7hPa NE 5.0mph /  8km/h 5.0mph /  8km/h 90% 0.01in /  0.25mm WeatherDisplay:10.37 W/m2 -RA
05:26 60.7 °F /  15.9 °C 57.4 °F /  14.1 °C 29.81in /  1009.4hPa NNE 9.2mph /  14.8km/h 9.2mph /  14.8km/h 89% 0.01in /  0.25mm WeatherDisplay:10.37 W/m2 -RA
05:31 60.8 °F /  16 °C 57.5 °F /  14.2 °C 29.82in /  1009.7hPa NW 3.5mph /  5.6km/h 3.5mph /  5.6km/h 89% 0.01in /  0.25mm WeatherDisplay:10.37 W/m2 -RA
05:36 60.7 °F /  15.9 °C 57.7 °F /  14.3 °C 29.84in /  1010.4hPa NW 1.2mph /  1.9km/h 1.2mph /  1.9km/h 90% 0.01in /  0.25mm WeatherDisplay:10.37 W/m2 -RA
05:41 60.7 °F /  15.9 °C 57.7 °F /  14.3 °C 29.85in /  1010.7hPa WNW 3.5mph /  5.6km/h 3.5mph /  5.6km/h 90% 0.00in /  0mm WeatherDisplay:10.37 W/m2 OVC
05:46 60.8 °F /  16 °C 57.8 °F /  14.3 °C 29.84in /  1010.4hPa NNE 6.9mph /  11.1km/h 6.9mph /  11.1km/h 90% 0.00in /  0mm WeatherDisplay:10.37 W/m2 OVC
05:51 61.0 °F /  16.1 °C 57.7 °F /  14.3 °C 29.84in /  1010.4hPa NNE 6.0mph /  9.7km/h 6.0mph /  9.7km/h 89% 0.00in /  0mm WeatherDisplay:10.37 W/m2 OVC
05:56 61.3 °F /  16.3 °C 58.0 °F /  14.4 °C 29.84in /  1010.4hPa NNE 8.1mph /  13km/h 8.1mph /  13km/h 89% 0.00in /  0mm WeatherDisplay:10.37 W/m2 OVC
06:01 61.5 °F /  16.4 °C 58.2 °F /  14.6 °C 29.84in /  1010.4hPa NNE 4.6mph /  7.4km/h 4.6mph /  7.4km/h 89% 0.00in /  0mm WeatherDisplay:10.37 W/m2 OVC
06:06 61.5 °F /  16.4 °C 57.9 °F /  14.4 °C 29.84in /  1010.4hPa NNE 3.5mph /  5.6km/h 3.5mph /  5.6km/h 88% 0.00in /  0mm WeatherDisplay:10.37 W/m2 -DZ
06:11 61.5 °F /  16.4 °C 58.2 °F /  14.6 °C 29.84in /  1010.4hPa NNE 3.5mph /  5.6km/h 3.5mph /  5.6km/h 89% 0.00in /  0mm WeatherDisplay:10.37 W/m2 -DZ
06:16 61.4 °F /  16.3 °C 58.1 °F /  14.5 °C 29.84in /  1010.4hPa NNE 3.5mph /  5.6km/h 3.5mph /  5.6km/h 89% 0.00in /  0mm WeatherDisplay:10.37 W/m2 -DZ
06:21 61.2 °F /  16.2 °C 58.2 °F /  14.6 °C 29.84in /  1010.4hPa NNE 3.5mph /  5.6km/h 3.5mph /  5.6km/h 90% 0.00in /  0mm WeatherDisplay:10.37 W/m2 -RA
06:26 61.2 °F /  16.2 °C 58.2 °F /  14.6 °C 29.85in /  1010.7hPa NNW 2.0mph /  3.2km/h 2.0mph /  3.2km/h 90% 0.00in /  0mm WeatherDisplay:10.37 W/m2 -RA
06:31 61.2 °F /  16.2 °C 58.2 °F /  14.6 °C 29.85in /  1010.7hPa NNW 3.5mph /  5.6km/h 3.5mph /  5.6km/h 90% 0.00in /  0mm WeatherDisplay:10.37 W/m2 -RA
06:36 61.2 °F /  16.2 °C 58.2 °F /  14.6 °C 29.85in /  1010.7hPa NNE 3.5mph /  5.6km/h 3.5mph /  5.6km/h 90% 0.00in /  0mm WeatherDisplay:10.37 W/m2 -RA
06:41 61.0 °F /  16.1 °C 58.0 °F /  14.4 °C 29.86in /  1011.1hPa NNE 5.8mph /  9.3km/h 5.8mph /  9.3km/h 90% 0.00in /  0mm WeatherDisplay:10.37 W/m2 -DZ
06:46 60.8 °F /  16 °C 57.8 °F /  14.3 °C 29.85in /  1010.7hPa NNE 3.5mph /  5.6km/h 3.5mph /  5.6km/h 90% 0.00in /  0mm WeatherDisplay:10.37 W/m2 -DZ
06:51 60.6 °F /  15.9 °C 57.6 °F /  14.2 °C 29.84in /  1010.4hPa North 3.5mph /  5.6km/h 3.5mph /  5.6km/h 90% 0.00in /  0mm WeatherDisplay:10.37 W/m2 -DZ
06:56 60.6 °F /  15.9 °C 57.9 °F /  14.4 °C 29.84in /  1010.4hPa NE 5.8mph /  9.3km/h 5.8mph /  9.3km/h 91% 0.00in /  0mm WeatherDisplay:10.37 W/m2 -DZ
07:01 60.5 °F /  15.8 °C 57.8 °F /  14.3 °C 29.85in /  1010.7hPa NE 3.5mph /  5.6km/h 3.5mph /  5.6km/h 91% 0.00in /  0mm WeatherDisplay:10.37 W/m2 OVC
07:06 60.5 °F /  15.8 °C 57.8 °F /  14.3 °C 29.85in /  1010.7hPa NNE 3.5mph /  5.6km/h 3.5mph /  5.6km/h 91% 0.00in /  0mm WeatherDisplay:10.37 W/m2 OVC
07:11 60.5 °F /  15.8 °C 58.1 °F /  14.5 °C 29.85in /  1010.7hPa NNE 1.2mph /  1.9km/h 1.2mph /  1.9km/h 92% 0.00in /  0mm WeatherDisplay:10.37 W/m2 OVC
07:16 60.4 °F /  15.8 °C 58.0 °F /  14.4 °C 29.85in /  1010.7hPa NNE 3.5mph /  5.6km/h 3.5mph /  5.6km/h 92% 0.00in /  0mm WeatherDisplay:10.37 W/m2 OVC
07:21 60.4 °F /  15.8 °C 58.0 °F /  14.4 °C 29.85in /  1010.7hPa NNE 3.5mph /  5.6km/h 3.5mph /  5.6km/h 92% 0.01in /  0.25mm WeatherDisplay:10.37 W/m2 -RA
07:26 60.4 °F /  15.8 °C 58.0 °F /  14.4 °C 29.86in /  1011.1hPa NNE 1.2mph /  1.9km/h 1.2mph /  1.9km/h 92% 0.01in /  0.25mm WeatherDisplay:10.37 W/m2 -RA
07:31 60.3 °F /  15.7 °C 57.9 °F /  14.4 °C 29.86in /  1011.1hPa NE 4.6mph /  7.4km/h 4.6mph /  7.4km/h 92% 0.02in /  0.51mm WeatherDisplay:10.37 W/m2 -RA
07:32 60.3 °F /  15.7 °C 57.9 °F /  14.4 °C 29.86in /  1011.1hPa NE 4.6mph /  7.4km/h 4.6mph /  7.4km/h 92% 0.02in /  0.51mm WeatherDisplay:10.37 W/m2 -RA
07:37 60.2 °F /  15.7 °C 58.1 °F /  14.5 °C 29.86in /  1011.1hPa NNE 5.8mph /  9.3km/h 5.8mph /  9.3km/h 93% 0.04in /  1.02mm WeatherDisplay:10.37 W/m2 -RA
07:42 60.1 °F /  15.6 °C 58.0 °F /  14.4 °C 29.86in /  1011.1hPa NNE 3.5mph /  5.6km/h 3.5mph /  5.6km/h 93% 0.04in /  1.02mm WeatherDisplay:10.37 W/m2 -RA
07:47 60.0 °F /  15.6 °C 57.9 °F /  14.4 °C 29.85in /  1010.7hPa North 4.6mph /  7.4km/h 4.6mph /  7.4km/h 93% 0.05in /  1.27mm WeatherDisplay:10.37 W/m2 -RA
07:52 60.0 °F /  15.6 °C 58.2 °F /  14.6 °C 29.86in /  1011.1hPa North 3.5mph /  5.6km/h 3.5mph /  5.6km/h 94% 0.05in /  1.27mm WeatherDisplay:10.37 W/m2 -RA
07:57 60.0 °F /  15.6 °C 58.2 °F /  14.6 °C 29.85in /  1010.7hPa North 2.3mph /  3.7km/h 2.3mph /  3.7km/h 94% 0.05in /  1.27mm WeatherDisplay:10.37 W/m2 -RA
08:02 60.0 °F /  15.6 °C 58.2 °F /  14.6 °C 29.85in /  1010.7hPa NNE 2.3mph /  3.7km/h 2.3mph /  3.7km/h 94% 0.05in /  1.27mm WeatherDisplay:10.37 W/m2 -RA
08:07 60.1 °F /  15.6 °C 58.6 °F /  14.8 °C 29.85in /  1010.7hPa NNE 1.2mph /  1.9km/h 1.2mph /  1.9km/h 95% 0.05in /  1.27mm WeatherDisplay:10.37 W/m2 -RA
08:12 60.2 °F /  15.7 °C 58.7 °F /  14.8 °C 29.85in /  1010.7hPa NNE 3.0mph /  4.8km/h 3.0mph /  4.8km/h 95% 0.06in /  1.52mm WeatherDisplay:10.37 W/m2 -RA
08:17 60.2 °F /  15.7 °C 58.4 °F /  14.7 °C 29.85in /  1010.7hPa NNE 3.0mph /  4.8km/h 3.0mph /  4.8km/h 94% 0.06in /  1.52mm WeatherDisplay:10.37 W/m2 -RA
08:22 60.3 °F /  15.7 °C 58.8 °F /  14.9 °C 29.85in /  1010.7hPa NNE 2.3mph /  3.7km/h   95% 0.05in /  1.27mm WeatherDisplay:10.37 W/m2 -RA
08:27 60.4 °F /  15.8 °C 58.9 °F /  14.9 °C 29.85in /  1010.7hPa NNE 3.5mph /  5.6km/h 3.5mph /  5.6km/h 95% 0.05in /  1.27mm WeatherDisplay:10.37 W/m2 -RA
08:32 60.5 °F /  15.8 °C 59.0 °F /  15 °C 29.85in /  1010.7hPa NNE 3.5mph /  5.6km/h 3.5mph /  5.6km/h 95% 0.04in /  1.02mm WeatherDisplay:10.37 W/m2 -RA
08:37 60.7 °F /  15.9 °C 59.2 °F /  15.1 °C 29.84in /  1010.4hPa NE 4.6mph /  7.4km/h 4.6mph /  7.4km/h 95% 0.02in /  0.51mm WeatherDisplay:10.37 W/m2 -RA
08:42 60.8 °F /  16 °C 59.0 °F /  15 °C 29.84in /  1010.4hPa North 6.0mph /  9.7km/h 6.0mph /  9.7km/h 94% 0.02in /  0.51mm WeatherDisplay:10.37 W/m2 -RA
08:47 61.1 °F /  16.2 °C 59.6 °F /  15.3 °C 29.85in /  1010.7hPa NNE 7.0mph /  11.3km/h 7.0mph /  11.3km/h 95% 0.01in /  0.25mm WeatherDisplay:10.37 W/m2 -RA
08:52 61.2 °F /  16.2 °C 59.4 °F /  15.2 °C 29.85in /  1010.7hPa NNE 4.6mph /  7.4km/h 4.6mph /  7.4km/h 94% 0.01in /  0.25mm WeatherDisplay:10.37 W/m2 -RA
08:57 61.5 °F /  16.4 °C 59.7 °F /  15.4 °C 29.84in /  1010.4hPa NE 3.5mph /  5.6km/h 3.5mph /  5.6km/h 94% 0.01in /  0.25mm WeatherDisplay:10.37 W/m2 -RA
09:02 61.7 °F /  16.5 °C 59.9 °F /  15.5 °C 29.84in /  1010.4hPa NNE 4.6mph /  7.4km/h 4.6mph /  7.4km/h 94% 0.01in /  0.25mm WeatherDisplay:10.37 W/m2 -DZ
09:07 62.0 °F /  16.7 °C 60.2 °F /  15.7 °C 29.84in /  1010.4hPa NNE 3.5mph /  5.6km/h 3.5mph /  5.6km/h 94% 0.01in /  0.25mm WeatherDisplay:10.37 W/m2 -DZ
09:12 62.3 °F /  16.8 °C 60.5 °F /  15.8 °C 29.84in /  1010.4hPa NNE 3.5mph /  5.6km/h 3.5mph /  5.6km/h 94% 0.00in /  0mm WeatherDisplay:10.37 W/m2 -DZ
09:17 62.3 °F /  16.8 °C 60.2 °F /  15.7 °C 29.83in /  1010hPa NNE 7.0mph /  11.3km/h 7.0mph /  11.3km/h 93% 0.00in /  0mm WeatherDisplay:10.37 W/m2 -DZ
09:22 62.3 °F /  16.8 °C 59.9 °F /  15.5 °C 29.83in /  1010hPa NNE 10.4mph /  16.7km/h 10.4mph /  16.7km/h 92% 0.00in /  0mm WeatherDisplay:10.37 W/m2 OVC
09:27 62.5 °F /  16.9 °C 60.4 °F /  15.8 °C 29.83in /  1010hPa NNE 4.6mph /  7.4km/h 4.6mph /  7.4km/h 93% 0.00in /  0mm WeatherDisplay:10.37 W/m2 OVC
09:32 62.7 °F /  17.1 °C 60.6 °F /  15.9 °C 29.83in /  1010hPa NNE 5.8mph /  9.3km/h 5.8mph /  9.3km/h 93% 0.00in /  0mm WeatherDisplay:10.37 W/m2 OVC
09:37 62.8 °F /  17.1 °C 60.7 °F /  15.9 °C 29.83in /  1010hPa NNE 5.0mph /  8km/h 5.0mph /  8km/h 93% 0.00in /  0mm WeatherDisplay:10.37 W/m2 OVC
09:42 63.1 °F /  17.3 °C 61.0 °F /  16.1 °C 29.83in /  1010hPa NNE 3.5mph /  5.6km/h 3.5mph /  5.6km/h 93% 0.00in /  0mm WeatherDisplay:10.37 W/m2 OVC
09:47 63.1 °F /  17.3 °C 60.7 °F /  15.9 °C 29.83in /  1010hPa NNE 4.6mph /  7.4km/h 4.6mph /  7.4km/h 92% 0.00in /  0mm WeatherDisplay:10.37 W/m2 OVC
09:52 63.3 °F /  17.4 °C 60.9 °F /  16.1 °C 29.82in /  1009.7hPa NNE 5.8mph /  9.3km/h 5.8mph /  9.3km/h 92% 0.00in /  0mm WeatherDisplay:10.37 W/m2 OVC
09:57 63.5 °F /  17.5 °C 61.1 °F /  16.2 °C 29.82in /  1009.7hPa NNE 3.5mph /  5.6km/h 3.5mph /  5.6km/h 92% 0.00in /  0mm WeatherDisplay:10.37 W/m2 OVC
10:02 63.6 °F /  17.6 °C 61.2 °F /  16.2 °C 29.82in /  1009.7hPa NNE 4.6mph /  7.4km/h 4.6mph /  7.4km/h 92% 0.00in /  0mm WeatherDisplay:10.37 W/m2 OVC
10:07 63.5 °F /  17.5 °C 60.8 °F /  16 °C 29.82in /  1009.7hPa East 5.8mph /  9.3km/h 5.8mph /  9.3km/h 91% 0.00in /  0mm WeatherDisplay:10.37 W/m2 OVC
10:12 63.6 °F /  17.6 °C 61.2 °F /  16.2 °C 29.82in /  1009.7hPa NE 3.5mph /  5.6km/h 3.5mph /  5.6km/h 92% 0.00in /  0mm WeatherDisplay:10.37 W/m2 OVC
10:17 63.6 °F /  17.6 °C 60.9 °F /  16.1 °C 29.82in /  1009.7hPa NNE 5.0mph /  8km/h 5.0mph /  8km/h 91% 0.00in /  0mm WeatherDisplay:10.37 W/m2 OVC
10:22 63.4 °F /  17.4 °C 60.4 °F /  15.8 °C 29.82in /  1009.7hPa NNE 9.2mph /  14.8km/h 9.2mph /  14.8km/h 90% 0.00in /  0mm WeatherDisplay:10.37 W/m2 OVC
10:27 63.3 °F /  17.4 °C 60.6 °F /  15.9 °C 29.82in /  1009.7hPa NNE 5.8mph /  9.3km/h 5.8mph /  9.3km/h 91% 0.00in /  0mm WeatherDisplay:10.37 W/m2 OVC
10:32 63.4 °F /  17.4 °C 60.7 °F /  15.9 °C 29.82in /  1009.7hPa NE 8.0mph /  12.9km/h 8.0mph /  12.9km/h 91% 0.00in /  0mm WeatherDisplay:10.37 W/m2 OVC
10:37 63.4 °F /  17.4 °C 60.7 °F /  15.9 °C 29.82in /  1009.7hPa NNE 9.2mph /  14.8km/h 9.2mph /  14.8km/h 91% 0.00in /  0mm WeatherDisplay:10.37 W/m2 OVC
10:42 63.5 °F /  17.5 °C 60.8 °F /  16 °C 29.81in /  1009.4hPa NNE 5.8mph /  9.3km/h 5.8mph /  9.3km/h 91% 0.00in /  0mm WeatherDisplay:10.37 W/m2 OVC
10:47 63.6 °F /  17.6 °C 60.9 °F /  16.1 °C 29.81in /  1009.4hPa NNE 9.2mph /  14.8km/h 9.2mph /  14.8km/h 91% 0.00in /  0mm WeatherDisplay:10.37 W/m2 OVC
10:52 63.7 °F /  17.6 °C 61.0 °F /  16.1 °C 29.81in /  1009.4hPa NNE 9.2mph /  14.8km/h 9.2mph /  14.8km/h 91% 0.00in /  0mm WeatherDisplay:10.37 W/m2 OVC
10:57 63.9 °F /  17.7 °C 61.2 °F /  16.2 °C 29.81in /  1009.4hPa ENE 6.9mph /  11.1km/h 6.9mph /  11.1km/h 91% 0.00in /  0mm WeatherDisplay:10.37 W/m2 OVC
11:02 64.1 °F /  17.8 °C 61.1 °F /  16.2 °C 29.81in /  1009.4hPa NNE 9.2mph /  14.8km/h 9.2mph /  14.8km/h 90% 0.00in /  0mm WeatherDisplay:10.37 W/m2 OVC
11:04 64.2 °F /  17.9 °C 61.2 °F /  16.2 °C 29.81in /  1009.4hPa NNW 8.1mph /  13km/h 8.1mph /  13km/h 90% 0.00in /  0mm WeatherDisplay:10.37 W/m2 OVC
11:09 64.3 °F /  17.9 °C 61.3 °F /  16.3 °C 29.81in /  1009.4hPa NNE 3.5mph /  5.6km/h 3.5mph /  5.6km/h 90% 0.00in /  0mm WeatherDisplay:10.37 W/m2 OVC
11:14 64.5 °F /  18.1 °C 61.5 °F /  16.4 °C 29.81in /  1009.4hPa NNE 4.0mph /  6.4km/h 4.0mph /  6.4km/h 90% 0.00in /  0mm WeatherDisplay:10.37 W/m2 OVC
11:19 64.6 °F /  18.1 °C 61.6 °F /  16.4 °C 29.80in /  1009hPa NNE 8.1mph /  13km/h 8.1mph /  13km/h 90% 0.00in /  0mm WeatherDisplay:10.37 W/m2 OVC
11:24 64.7 °F /  18.2 °C 61.7 °F /  16.5 °C 29.80in /  1009hPa NNE 5.8mph /  9.3km/h 5.8mph /  9.3km/h 90% 0.00in /  0mm WeatherDisplay:10.37 W/m2 OVC
11:29 64.8 °F /  18.2 °C 61.8 °F /  16.6 °C 29.81in /  1009.4hPa NNW 8.0mph /  12.9km/h 8.0mph /  12.9km/h 90% 0.00in /  0mm WeatherDisplay:10.37 W/m2 OVC
11:34 64.9 °F /  18.3 °C 61.9 °F /  16.6 °C 29.80in /  1009hPa NNE 3.5mph /  5.6km/h 3.5mph /  5.6km/h 90% 0.00in /  0mm WeatherDisplay:10.37 W/m2 OVC
11:39 64.9 °F /  18.3 °C 61.9 °F /  16.6 °C 29.80in /  1009hPa NNE 6.9mph /  11.1km/h 6.9mph /  11.1km/h 90% 0.00in /  0mm WeatherDisplay:10.37 W/m2 OVC
11:44 64.9 °F /  18.3 °C 61.5 °F /  16.4 °C 29.80in /  1009hPa North 10.4mph /  16.7km/h 10.4mph /  16.7km/h 89% 0.00in /  0mm WeatherDisplay:10.37 W/m2 OVC
11:49 64.9 °F /  18.3 °C 61.5 °F /  16.4 °C 29.80in /  1009hPa NNE 5.8mph /  9.3km/h 5.8mph /  9.3km/h 89% 0.00in /  0mm WeatherDisplay:10.37 W/m2 OVC
11:54 64.9 °F /  18.3 °C 61.5 °F /  16.4 °C 29.79in /  1008.7hPa NE 9.2mph /  14.8km/h 9.2mph /  14.8km/h 89% 0.00in /  0mm WeatherDisplay:10.37 W/m2 OVC
11:59 65.0 °F /  18.3 °C 62.0 °F /  16.7 °C 29.79in /  1008.7hPa NE 5.8mph /  9.3km/h 5.8mph /  9.3km/h 90% 0.00in /  0mm WeatherDisplay:10.37 W/m2 OVC
12:04 64.9 °F /  18.3 °C 61.5 °F /  16.4 °C 29.79in /  1008.7hPa ENE 6.9mph /  11.1km/h 6.9mph /  11.1km/h 89% 0.00in /  0mm WeatherDisplay:10.37 W/m2 OVC
12:09 64.9 °F /  18.3 °C 61.9 °F /  16.6 °C 29.79in /  1008.7hPa NNE 4.6mph /  7.4km/h 4.6mph /  7.4km/h 90% 0.00in /  0mm WeatherDisplay:10.37 W/m2 OVC
12:14 65.0 °F /  18.3 °C 62.3 °F /  16.8 °C 29.78in /  1008.4hPa NNE 3.5mph /  5.6km/h 3.5mph /  5.6km/h 91% 0.00in /  0mm WeatherDisplay:10.37 W/m2 OVC
12:19 65.0 °F /  18.3 °C 62.0 °F /  16.7 °C 29.78in /  1008.4hPa ENE 6.9mph /  11.1km/h 6.9mph /  11.1km/h 90% 0.00in /  0mm WeatherDisplay:10.37 W/m2 OVC
12:24 64.9 °F /  18.3 °C 62.2 °F /  16.8 °C 29.78in /  1008.4hPa ESE 4.0mph /  6.4km/h 4.0mph /  6.4km/h 91% 0.00in /  0mm WeatherDisplay:10.37 W/m2 OVC
12:29 64.9 °F /  18.3 °C 62.5 °F /  16.9 °C 29.78in /  1008.4hPa East 3.5mph /  5.6km/h 3.5mph /  5.6km/h 92% 0.00in /  0mm WeatherDisplay:10.37 W/m2 OVC
12:30 64.9 °F /  18.3 °C 62.5 °F /  16.9 °C 29.78in /  1008.4hPa East 3.5mph /  5.6km/h 3.5mph /  5.6km/h 92% 0.00in /  0mm WeatherDisplay:10.37 W/m2 OVC
12:35 65.0 °F /  18.3 °C 62.6 °F /  17 °C 29.78in /  1008.4hPa ENE 3.5mph /  5.6km/h 3.5mph /  5.6km/h 92% 0.00in /  0mm WeatherDisplay:10.37 W/m2 OVC
12:40 65.0 °F /  18.3 °C 62.6 °F /  17 °C 29.77in /  1008hPa NE 2.3mph /  3.7km/h 2.3mph /  3.7km/h 92% 0.00in /  0mm WeatherDisplay:10.37 W/m2 OVC
12:45 65.0 °F /  18.3 °C 62.6 °F /  17 °C 29.77in /  1008hPa NE 3.5mph /  5.6km/h 3.5mph /  5.6km/h 92% 0.00in /  0mm WeatherDisplay:10.37 W/m2 -RA
12:50 64.9 °F /  18.3 °C 62.2 °F /  16.8 °C 29.78in /  1008.4hPa NE 3.5mph /  5.6km/h 3.5mph /  5.6km/h 91% 0.01in /  0.25mm WeatherDisplay:10.37 W/m2 -RA
12:55 64.7 °F /  18.2 °C 62.3 °F /  16.8 °C 29.77in /  1008hPa ENE 2.3mph /  3.7km/h 2.3mph /  3.7km/h 92% 0.02in /  0.51mm WeatherDisplay:10.37 W/m2 -RA
13:00 64.7 °F /  18.2 °C 62.3 °F /  16.8 °C 29.77in /  1008hPa East 3.5mph /  5.6km/h 3.5mph /  5.6km/h 92% 0.03in /  0.76mm WeatherDisplay:10.37 W/m2 -RA
13:05 64.6 °F /  18.1 °C 62.2 °F /  16.8 °C 29.77in /  1008hPa ENE 3.5mph /  5.6km/h 3.5mph /  5.6km/h 92% 0.04in /  1.02mm WeatherDisplay:10.37 W/m2 -RA
13:10 64.3 °F /  17.9 °C 61.9 °F /  16.6 °C 29.76in /  1007.7hPa ENE 3.5mph /  5.6km/h 3.5mph /  5.6km/h 92% 0.05in /  1.27mm WeatherDisplay:10.37 W/m2 -RA
13:15 64.1 °F /  17.8 °C 61.7 °F /  16.5 °C 29.76in /  1007.7hPa NE 3.5mph /  5.6km/h 3.5mph /  5.6km/h 92% 0.05in /  1.27mm WeatherDisplay:10.37 W/m2 -RA
13:20 64.1 °F /  17.8 °C 62.3 °F /  16.8 °C 29.76in /  1007.7hPa NE 3.5mph /  5.6km/h 3.5mph /  5.6km/h 94% 0.06in /  1.52mm WeatherDisplay:10.37 W/m2 -RA
13:25 64.0 °F /  17.8 °C 61.9 °F /  16.6 °C 29.76in /  1007.7hPa NNE 3.5mph /  5.6km/h 3.5mph /  5.6km/h 93% 0.07in /  1.78mm WeatherDisplay:10.37 W/m2 RA
13:30 64.0 °F /  17.8 °C 61.9 °F /  16.6 °C 29.76in /  1007.7hPa NNE 3.5mph /  5.6km/h 3.5mph /  5.6km/h 93% 0.07in /  1.78mm WeatherDisplay:10.37 W/m2 RA
13:35 64.1 °F /  17.8 °C 62.3 °F /  16.8 °C 29.75in /  1007.3hPa NNE 2.3mph /  3.7km/h 2.3mph /  3.7km/h 94% 0.08in /  2.03mm WeatherDisplay:10.37 W/m2 RA
13:40 64.1 °F /  17.8 °C 62.3 °F /  16.8 °C 29.75in /  1007.3hPa NNE 3.5mph /  5.6km/h 3.5mph /  5.6km/h 94% 0.09in /  2.29mm WeatherDisplay:10.37 W/m2 RA
13:45 63.9 °F /  17.7 °C 61.8 °F /  16.6 °C 29.75in /  1007.3hPa NNE 3.5mph /  5.6km/h 3.5mph /  5.6km/h 93% 0.10in /  2.54mm WeatherDisplay:10.37 W/m2 -RA
13:50 63.9 °F /  17.7 °C 61.8 °F /  16.6 °C 29.75in /  1007.3hPa NNE 3.5mph /  5.6km/h 3.5mph /  5.6km/h 93% 0.10in /  2.54mm WeatherDisplay:10.37 W/m2 -RA
13:55 63.8 °F /  17.7 °C 61.7 °F /  16.5 °C 29.75in /  1007.3hPa NNE 3.5mph /  5.6km/h 3.5mph /  5.6km/h 93% 0.09in /  2.29mm WeatherDisplay:10.37 W/m2 -RA
14:00 63.8 °F /  17.7 °C 61.7 °F /  16.5 °C 29.75in /  1007.3hPa NNE 5.0mph /  8km/h 5.0mph /  8km/h 93% 0.08in /  2.03mm WeatherDisplay:10.37 W/m2 -RA
14:05 63.8 °F /  17.7 °C 61.7 °F /  16.5 °C 29.74in /  1007hPa NNE 7.0mph /  11.3km/h 7.0mph /  11.3km/h 93% 0.07in /  1.78mm WeatherDisplay:10.37 W/m2 -RA
14:10 63.9 °F /  17.7 °C 61.8 °F /  16.6 °C 29.74in /  1007hPa NNE 4.6mph /  7.4km/h 4.6mph /  7.4km/h 93% 0.07in /  1.78mm WeatherDisplay:10.37 W/m2 -RA
14:15 64.1 °F /  17.8 °C 62.3 °F /  16.8 °C 29.74in /  1007hPa NNE 4.0mph /  6.4km/h 4.0mph /  6.4km/h 94% 0.07in /  1.78mm WeatherDisplay:10.37 W/m2 -RA
14:20 64.2 °F /  17.9 °C 62.4 °F /  16.9 °C 29.74in /  1007hPa ENE 3.5mph /  5.6km/h 3.5mph /  5.6km/h 94% 0.06in /  1.52mm WeatherDisplay:10.37 W/m2 -RA
14:25 64.3 °F /  17.9 °C 62.5 °F /  16.9 °C 29.73in /  1006.7hPa NNE 3.5mph /  5.6km/h 3.5mph /  5.6km/h 94% 0.05in /  1.27mm WeatherDisplay:10.37 W/m2 -RA
14:30 64.3 °F /  17.9 °C 62.5 °F /  16.9 °C 29.73in /  1006.7hPa NNE 3.5mph /  5.6km/h 3.5mph /  5.6km/h 94% 0.06in /  1.52mm WeatherDisplay:10.37 W/m2 -RA
14:35 64.2 °F /  17.9 °C 62.4 °F /  16.9 °C 29.73in /  1006.7hPa NNE 4.6mph /  7.4km/h 4.6mph /  7.4km/h 94% 0.06in /  1.52mm WeatherDisplay:10.37 W/m2 -RA
14:40 64.2 °F /  17.9 °C 62.1 °F /  16.7 °C 29.73in /  1006.7hPa ENE 6.9mph /  11.1km/h 6.9mph /  11.1km/h 93% 0.05in /  1.27mm WeatherDisplay:10.37 W/m2 -RA
14:45 64.1 °F /  17.8 °C 62.3 °F /  16.8 °C 29.73in /  1006.7hPa ENE 2.3mph /  3.7km/h 2.3mph /  3.7km/h 94% 0.05in /  1.27mm WeatherDisplay:10.37 W/m2 -RA
14:50 64.2 °F /  17.9 °C 62.4 °F /  16.9 °C 29.72in /  1006.3hPa NE 3.5mph /  5.6km/h 3.5mph /  5.6km/h 94% 0.04in /  1.02mm WeatherDisplay:10.37 W/m2 -RA
14:55 64.1 °F /  17.8 °C 62.3 °F /  16.8 °C 29.72in /  1006.3hPa NNE 4.6mph /  7.4km/h 4.6mph /  7.4km/h 94% 0.05in /  1.27mm WeatherDisplay:10.37 W/m2 -RA
Smyth Weather
Compliments of Weather Underground - 2.5 mb